sensor_id;sensor_type;location;lat;lon;timestamp;temperature;humidity
18207;DHT22;9229;52.354;20.886;2023-01-24T00:00:54;2.60;99.90
18207;DHT22;9229;52.354;20.886;2023-01-24T00:05:56;2.60;99.90
18207;DHT22;9229;52.354;20.886;2023-01-24T00:11:01;2.60;99.90
18207;DHT22;9229;52.354;20.886;2023-01-24T00:16:06;2.60;99.90
18207;DHT22;9229;52.354;20.886;2023-01-24T00:21:12;2.60;99.90
18207;DHT22;9229;52.354;20.886;2023-01-24T00:26:17;2.60;99.90
18207;DHT22;9229;52.354;20.886;2023-01-24T00:31:20;2.60;99.90
18207;DHT22;9229;52.354;20.886;2023-01-24T00:36:22;2.60;99.90
18207;DHT22;9229;52.354;20.886;2023-01-24T00:41:25;2.60;99.90
18207;DHT22;9229;52.354;20.886;2023-01-24T00:46:28;2.60;99.90
18207;DHT22;9229;52.354;20.886;2023-01-24T00:51:30;2.60;99.90
18207;DHT22;9229;52.354;20.886;2023-01-24T00:56:33;2.60;99.90
18207;DHT22;9229;52.354;20.886;2023-01-24T01:01:36;2.60;99.90
18207;DHT22;9229;52.354;20.886;2023-01-24T01:06:38;2.50;99.90
18207;DHT22;9229;52.354;20.886;2023-01-24T01:11:41;2.60;99.90
18207;DHT22;9229;52.354;20.886;2023-01-24T01:16:44;2.60;99.90
18207;DHT22;9229;52.354;20.886;2023-01-24T01:21:46;2.50;99.90
18207;DHT22;9229;52.354;20.886;2023-01-24T01:26:52;2.50;99.90
18207;DHT22;9229;52.354;20.886;2023-01-24T01:31:53;2.50;99.90
18207;DHT22;9229;52.354;20.886;2023-01-24T01:36:56;2.50;99.90
18207;DHT22;9229;52.354;20.886;2023-01-24T01:41:59;2.60;99.90
18207;DHT22;9229;52.354;20.886;2023-01-24T01:47:03;2.50;99.90
18207;DHT22;9229;52.354;20.886;2023-01-24T01:52:07;2.50;99.90
18207;DHT22;9229;52.354;20.886;2023-01-24T01:57:12;2.50;99.90
18207;DHT22;9229;52.354;20.886;2023-01-24T02:02:16;2.50;99.90
18207;DHT22;9229;52.354;20.886;2023-01-24T02:07:23;2.60;99.90
18207;DHT22;9229;52.354;20.886;2023-01-24T02:12:32;2.50;99.90
18207;DHT22;9229;52.354;20.886;2023-01-24T02:17:35;2.50;99.90
18207;DHT22;9229;52.354;20.886;2023-01-24T02:22:43;2.50;99.90
18207;DHT22;9229;52.354;20.886;2023-01-24T02:27:49;2.50;99.90
18207;DHT22;9229;52.354;20.886;2023-01-24T02:32:52;2.50;99.90
18207;DHT22;9229;52.354;20.886;2023-01-24T02:37:57;2.50;99.90
18207;DHT22;9229;52.354;20.886;2023-01-24T02:43:04;2.50;99.90
18207;DHT22;9229;52.354;20.886;2023-01-24T02:48:08;2.50;99.90
18207;DHT22;9229;52.354;20.886;2023-01-24T02:53:11;2.50;99.90
18207;DHT22;9229;52.354;20.886;2023-01-24T02:58:34;2.50;99.90
18207;DHT22;9229;52.354;20.886;2023-01-24T03:03:38;2.50;99.90
18207;DHT22;9229;52.354;20.886;2023-01-24T03:08:41;2.50;99.90
18207;DHT22;9229;52.354;20.886;2023-01-24T03:13:53;2.50;99.90
18207;DHT22;9229;52.354;20.886;2023-01-24T03:19:14;2.50;99.90
18207;DHT22;9229;52.354;20.886;2023-01-24T03:24:37;2.50;99.90
18207;DHT22;9229;52.354;20.886;2023-01-24T03:29:58;2.40;99.90
18207;DHT22;9229;52.354;20.886;2023-01-24T03:35:19;2.40;99.90
18207;DHT22;9229;52.354;20.886;2023-01-24T03:40:23;2.50;99.90
18207;DHT22;9229;52.354;20.886;2023-01-24T03:45:28;2.40;99.90
18207;DHT22;9229;52.354;20.886;2023-01-24T03:50:32;2.40;99.90
18207;DHT22;9229;52.354;20.886;2023-01-24T03:55:53;2.40;99.90
18207;DHT22;9229;52.354;20.886;2023-01-24T04:00:58;2.50;99.90
18207;DHT22;9229;52.354;20.886;2023-01-24T04:06:26;2.40;99.90
18207;DHT22;9229;52.354;20.886;2023-01-24T04:11:28;2.40;99.90
18207;DHT22;9229;52.354;20.886;2023-01-24T04:16:39;2.40;99.90
18207;DHT22;9229;52.354;20.886;2023-01-24T04:21:53;2.40;99.90
18207;DHT22;9229;52.354;20.886;2023-01-24T04:26:58;2.40;99.90
18207;DHT22;9229;52.354;20.886;2023-01-24T04:32:08;2.40;99.90
18207;DHT22;9229;52.354;20.886;2023-01-24T04:37:15;2.40;99.90
18207;DHT22;9229;52.354;20.886;2023-01-24T04:42:17;2.50;99.90
18207;DHT22;9229;52.354;20.886;2023-01-24T04:47:22;2.50;99.90
18207;DHT22;9229;52.354;20.886;2023-01-24T04:52:26;2.40;99.90
18207;DHT22;9229;52.354;20.886;2023-01-24T04:57:38;2.40;99.90
18207;DHT22;9229;52.354;20.886;2023-01-24T05:02:41;2.40;99.90
18207;DHT22;9229;52.354;20.886;2023-01-24T05:07:44;2.40;99.90
18207;DHT22;9229;52.354;20.886;2023-01-24T05:12:50;2.40;99.90
18207;DHT22;9229;52.354;20.886;2023-01-24T05:17:57;2.40;99.90
18207;DHT22;9229;52.354;20.886;2023-01-24T05:23:00;2.40;99.90
18207;DHT22;9229;52.354;20.886;2023-01-24T05:28:06;2.40;99.90
18207;DHT22;9229;52.354;20.886;2023-01-24T05:33:20;2.40;99.90
18207;DHT22;9229;52.354;20.886;2023-01-24T05:38:23;2.40;99.90
18207;DHT22;9229;52.354;20.886;2023-01-24T05:43:27;2.40;99.90
18207;DHT22;9229;52.354;20.886;2023-01-24T05:48:32;2.40;99.90
18207;DHT22;9229;52.354;20.886;2023-01-24T05:53:38;2.40;99.90
18207;DHT22;9229;52.354;20.886;2023-01-24T05:58:43;2.40;99.90
18207;DHT22;9229;52.354;20.886;2023-01-24T06:03:52;2.40;99.90
18207;DHT22;9229;52.354;20.886;2023-01-24T06:08:54;2.40;99.90
18207;DHT22;9229;52.354;20.886;2023-01-24T06:13:58;2.40;99.90
18207;DHT22;9229;52.354;20.886;2023-01-24T06:19:03;2.40;99.90
18207;DHT22;9229;52.354;20.886;2023-01-24T06:24:07;2.40;99.90
18207;DHT22;9229;52.354;20.886;2023-01-24T06:29:24;2.40;99.90
18207;DHT22;9229;52.354;20.886;2023-01-24T06:34:54;2.40;99.90
18207;DHT22;9229;52.354;20.886;2023-01-24T06:40:03;2.40;99.90
18207;DHT22;9229;52.354;20.886;2023-01-24T06:45:09;2.40;99.90
18207;DHT22;9229;52.354;20.886;2023-01-24T06:50:19;2.40;99.90
18207;DHT22;9229;52.354;20.886;2023-01-24T06:55:22;2.40;99.90
18207;DHT22;9229;52.354;20.886;2023-01-24T07:00:25;2.50;99.90
18207;DHT22;9229;52.354;20.886;2023-01-24T07:05:31;2.50;99.90
18207;DHT22;9229;52.354;20.886;2023-01-24T07:10:34;2.50;99.90
18207;DHT22;9229;52.354;20.886;2023-01-24T07:15:36;2.50;99.90
18207;DHT22;9229;52.354;20.886;2023-01-24T07:20:40;2.50;99.90
18207;DHT22;9229;52.354;20.886;2023-01-24T07:25:58;2.60;99.90
18207;DHT22;9229;52.354;20.886;2023-01-24T07:31:01;2.60;99.90
18207;DHT22;9229;52.354;20.886;2023-01-24T07:36:15;2.60;99.90
18207;DHT22;9229;52.354;20.886;2023-01-24T07:41:19;2.70;99.90
18207;DHT22;9229;52.354;20.886;2023-01-24T07:46:26;2.80;99.90
18207;DHT22;9229;52.354;20.886;2023-01-24T07:51:30;2.80;99.90
18207;DHT22;9229;52.354;20.886;2023-01-24T07:56:32;2.80;99.90
18207;DHT22;9229;52.354;20.886;2023-01-24T08:01:34;2.90;99.90
18207;DHT22;9229;52.354;20.886;2023-01-24T08:06:38;2.90;99.90
18207;DHT22;9229;52.354;20.886;2023-01-24T08:12:00;3.00;99.90
18207;DHT22;9229;52.354;20.886;2023-01-24T08:17:02;3.00;99.90
18207;DHT22;9229;52.354;20.886;2023-01-24T08:22:06;3.10;99.90
18207;DHT22;9229;52.354;20.886;2023-01-24T08:27:08;3.20;99.90
18207;DHT22;9229;52.354;20.886;2023-01-24T08:32:10;3.30;99.90
18207;DHT22;9229;52.354;20.886;2023-01-24T08:37:14;3.40;99.90
18207;DHT22;9229;52.354;20.886;2023-01-24T08:42:16;3.40;99.90
18207;DHT22;9229;52.354;20.886;2023-01-24T08:47:18;3.40;99.90
18207;DHT22;9229;52.354;20.886;2023-01-24T08:52:22;3.50;99.90
18207;DHT22;9229;52.354;20.886;2023-01-24T08:57:25;3.60;99.90
18207;DHT22;9229;52.354;20.886;2023-01-24T09:02:27;3.60;99.90
18207;DHT22;9229;52.354;20.886;2023-01-24T09:07:31;3.70;99.90
18207;DHT22;9229;52.354;20.886;2023-01-24T09:12:33;3.70;99.90
18207;DHT22;9229;52.354;20.886;2023-01-24T09:17:36;3.80;99.90
18207;DHT22;9229;52.354;20.886;2023-01-24T09:22:41;3.80;99.90
18207;DHT22;9229;52.354;20.886;2023-01-24T09:27:43;3.80;99.90
18207;DHT22;9229;52.354;20.886;2023-01-24T09:32:46;3.80;99.90
18207;DHT22;9229;52.354;20.886;2023-01-24T09:37:51;4.00;99.90
18207;DHT22;9229;52.354;20.886;2023-01-24T09:43:00;3.90;99.90
18207;DHT22;9229;52.354;20.886;2023-01-24T09:48:06;4.00;99.90
18207;DHT22;9229;52.354;20.886;2023-01-24T09:53:17;4.00;99.90
18207;DHT22;9229;52.354;20.886;2023-01-24T09:58:27;4.00;99.90
18207;DHT22;9229;52.354;20.886;2023-01-24T10:03:32;4.00;99.90
18207;DHT22;9229;52.354;20.886;2023-01-24T10:08:38;4.00;99.90
18207;DHT22;9229;52.354;20.886;2023-01-24T10:14:00;4.10;99.90
18207;DHT22;9229;52.354;20.886;2023-01-24T10:19:11;4.10;99.90
18207;DHT22;9229;52.354;20.886;2023-01-24T10:24:22;4.10;99.90
18207;DHT22;9229;52.354;20.886;2023-01-24T10:29:27;4.20;99.90
18207;DHT22;9229;52.354;20.886;2023-01-24T10:34:34;4.10;99.90
18207;DHT22;9229;52.354;20.886;2023-01-24T10:39:41;4.20;99.90
18207;DHT22;9229;52.354;20.886;2023-01-24T10:44:43;4.20;99.90
18207;DHT22;9229;52.354;20.886;2023-01-24T10:49:51;4.20;99.90
18207;DHT22;9229;52.354;20.886;2023-01-24T10:54:57;4.40;99.90
18207;DHT22;9229;52.354;20.886;2023-01-24T11:00:12;4.30;99.90
18207;DHT22;9229;52.354;20.886;2023-01-24T11:05:20;4.40;99.90
18207;DHT22;9229;52.354;20.886;2023-01-24T11:10:26;4.40;99.90
18207;DHT22;9229;52.354;20.886;2023-01-24T11:15:30;4.40;99.90
18207;DHT22;9229;52.354;20.886;2023-01-24T11:20:33;4.20;99.90
18207;DHT22;9229;52.354;20.886;2023-01-24T11:25:51;4.20;99.90
18207;DHT22;9229;52.354;20.886;2023-01-24T11:30:54;4.20;99.90
18207;DHT22;9229;52.354;20.886;2023-01-24T11:36:02;4.20;99.90
18207;DHT22;9229;52.354;20.886;2023-01-24T11:41:10;4.30;99.90
18207;DHT22;9229;52.354;20.886;2023-01-24T11:46:24;4.30;99.90
18207;DHT22;9229;52.354;20.886;2023-01-24T11:51:38;4.40;99.90
18207;DHT22;9229;52.354;20.886;2023-01-24T11:56:49;4.40;99.90
18207;DHT22;9229;52.354;20.886;2023-01-24T12:01:58;4.40;99.90
18207;DHT22;9229;52.354;20.886;2023-01-24T12:07:04;4.40;99.90
18207;DHT22;9229;52.354;20.886;2023-01-24T12:12:14;4.50;99.90
18207;DHT22;9229;52.354;20.886;2023-01-24T12:17:40;4.50;99.90
18207;DHT22;9229;52.354;20.886;2023-01-24T12:22:45;4.50;99.90
18207;DHT22;9229;52.354;20.886;2023-01-24T12:27:50;4.60;99.90
18207;DHT22;9229;52.354;20.886;2023-01-24T12:32:59;4.60;99.90
18207;DHT22;9229;52.354;20.886;2023-01-24T12:38:09;4.60;99.90
18207;DHT22;9229;52.354;20.886;2023-01-24T12:43:21;4.70;99.90
18207;DHT22;9229;52.354;20.886;2023-01-24T12:48:36;4.70;99.90
18207;DHT22;9229;52.354;20.886;2023-01-24T12:53:52;4.70;99.90
18207;DHT22;9229;52.354;20.886;2023-01-24T12:58:58;4.90;99.90
18207;DHT22;9229;52.354;20.886;2023-01-24T13:04:15;4.80;99.90
18207;DHT22;9229;52.354;20.886;2023-01-24T13:09:23;4.80;99.90
18207;DHT22;9229;52.354;20.886;2023-01-24T13:14:33;4.80;99.90
18207;DHT22;9229;52.354;20.886;2023-01-24T13:19:50;4.80;99.90
18207;DHT22;9229;52.354;20.886;2023-01-24T13:25:03;4.70;99.90
18207;DHT22;9229;52.354;20.886;2023-01-24T13:35:48;4.60;99.90
18207;DHT22;9229;52.354;20.886;2023-01-24T13:40:59;4.40;99.90
18207;DHT22;9229;52.354;20.886;2023-01-24T13:46:03;4.40;99.90
18207;DHT22;9229;52.354;20.886;2023-01-24T13:51:33;4.30;99.90
18207;DHT22;9229;52.354;20.886;2023-01-24T13:57:13;4.30;99.90
18207;DHT22;9229;52.354;20.886;2023-01-24T14:02:27;4.30;99.90
18207;DHT22;9229;52.354;20.886;2023-01-24T14:07:37;4.20;99.90
18207;DHT22;9229;52.354;20.886;2023-01-24T14:12:52;4.20;99.90
18207;DHT22;9229;52.354;20.886;2023-01-24T14:17:55;4.10;99.90
18207;DHT22;9229;52.354;20.886;2023-01-24T14:23:03;4.00;99.90
18207;DHT22;9229;52.354;20.886;2023-01-24T14:28:14;3.90;99.90
18207;DHT22;9229;52.354;20.886;2023-01-24T14:33:27;3.90;99.90
18207;DHT22;9229;52.354;20.886;2023-01-24T14:38:31;3.80;99.90
18207;DHT22;9229;52.354;20.886;2023-01-24T14:43:36;3.70;99.90
18207;DHT22;9229;52.354;20.886;2023-01-24T14:48:39;3.70;99.90
18207;DHT22;9229;52.354;20.886;2023-01-24T14:53:49;3.70;99.90
18207;DHT22;9229;52.354;20.886;2023-01-24T14:58:52;3.60;99.90
18207;DHT22;9229;52.354;20.886;2023-01-24T15:03:56;3.70;99.90
18207;DHT22;9229;52.354;20.886;2023-01-24T15:09:01;3.60;99.90
18207;DHT22;9229;52.354;20.886;2023-01-24T15:14:05;3.60;99.90
18207;DHT22;9229;52.354;20.886;2023-01-24T15:19:15;3.50;99.90
18207;DHT22;9229;52.354;20.886;2023-01-24T15:24:22;3.50;99.90
18207;DHT22;9229;52.354;20.886;2023-01-24T15:29:42;3.50;99.90
18207;DHT22;9229;52.354;20.886;2023-01-24T15:34:46;3.50;99.90
18207;DHT22;9229;52.354;20.886;2023-01-24T15:39:56;3.50;99.90
18207;DHT22;9229;52.354;20.886;2023-01-24T15:44:58;3.40;99.90
18207;DHT22;9229;52.354;20.886;2023-01-24T15:50:02;3.40;99.90
18207;DHT22;9229;52.354;20.886;2023-01-24T15:55:26;3.40;99.90
18207;DHT22;9229;52.354;20.886;2023-01-24T16:00:28;3.40;99.90
18207;DHT22;9229;52.354;20.886;2023-01-24T16:05:30;3.40;99.90
18207;DHT22;9229;52.354;20.886;2023-01-24T16:10:36;3.40;99.90
18207;DHT22;9229;52.354;20.886;2023-01-24T16:15:39;3.40;99.90
18207;DHT22;9229;52.354;20.886;2023-01-24T16:20:41;3.40;99.90
18207;DHT22;9229;52.354;20.886;2023-01-24T16:25:47;3.30;99.90
18207;DHT22;9229;52.354;20.886;2023-01-24T16:30:51;3.30;99.90
18207;DHT22;9229;52.354;20.886;2023-01-24T16:35:54;3.30;99.90
18207;DHT22;9229;52.354;20.886;2023-01-24T16:40:58;3.30;99.90
18207;DHT22;9229;52.354;20.886;2023-01-24T16:46:15;3.30;99.90
18207;DHT22;9229;52.354;20.886;2023-01-24T16:51:19;3.30;99.90
18207;DHT22;9229;52.354;20.886;2023-01-24T16:56:23;3.30;99.90
18207;DHT22;9229;52.354;20.886;2023-01-24T17:01:25;3.20;99.90
18207;DHT22;9229;52.354;20.886;2023-01-24T17:06:27;3.20;99.90
18207;DHT22;9229;52.354;20.886;2023-01-24T17:11:31;3.10;99.90
18207;DHT22;9229;52.354;20.886;2023-01-24T17:16:34;3.10;99.90
18207;DHT22;9229;52.354;20.886;2023-01-24T17:21:36;3.10;99.90
18207;DHT22;9229;52.354;20.886;2023-01-24T17:26:40;3.20;99.90
18207;DHT22;9229;52.354;20.886;2023-01-24T17:31:44;3.20;99.90
18207;DHT22;9229;52.354;20.886;2023-01-24T17:36:46;3.20;99.90
18207;DHT22;9229;52.354;20.886;2023-01-24T17:41:50;3.30;99.90
18207;DHT22;9229;52.354;20.886;2023-01-24T17:46:54;3.30;99.90
18207;DHT22;9229;52.354;20.886;2023-01-24T17:51:57;3.30;99.90
18207;DHT22;9229;52.354;20.886;2023-01-24T17:57:01;3.30;99.90
18207;DHT22;9229;52.354;20.886;2023-01-24T18:02:03;3.20;99.90
18207;DHT22;9229;52.354;20.886;2023-01-24T18:07:05;3.10;99.90
18207;DHT22;9229;52.354;20.886;2023-01-24T18:12:08;3.10;99.90
18207;DHT22;9229;52.354;20.886;2023-01-24T18:17:10;3.00;99.90
18207;DHT22;9229;52.354;20.886;2023-01-24T18:22:12;3.00;99.90
18207;DHT22;9229;52.354;20.886;2023-01-24T18:27:17;2.90;99.90
18207;DHT22;9229;52.354;20.886;2023-01-24T18:32:19;2.90;99.90
18207;DHT22;9229;52.354;20.886;2023-01-24T18:37:21;2.80;99.90
18207;DHT22;9229;52.354;20.886;2023-01-24T18:42:25;2.80;99.90
18207;DHT22;9229;52.354;20.886;2023-01-24T18:47:27;2.70;99.90
18207;DHT22;9229;52.354;20.886;2023-01-24T18:52:29;2.70;99.90
18207;DHT22;9229;52.354;20.886;2023-01-24T18:57:33;2.70;99.90
18207;DHT22;9229;52.354;20.886;2023-01-24T19:02:35;2.70;99.90
18207;DHT22;9229;52.354;20.886;2023-01-24T19:07:37;2.70;99.90
18207;DHT22;9229;52.354;20.886;2023-01-24T19:12:40;2.70;99.90
18207;DHT22;9229;52.354;20.886;2023-01-24T19:17:42;2.70;99.90
18207;DHT22;9229;52.354;20.886;2023-01-24T19:22:49;2.60;99.90
18207;DHT22;9229;52.354;20.886;2023-01-24T19:27:52;2.60;99.90
18207;DHT22;9229;52.354;20.886;2023-01-24T19:32:54;2.60;99.90
18207;DHT22;9229;52.354;20.886;2023-01-24T19:37:56;2.50;99.90
18207;DHT22;9229;52.354;20.886;2023-01-24T19:43:01;2.50;99.90
18207;DHT22;9229;52.354;20.886;2023-01-24T19:48:12;2.50;99.90
18207;DHT22;9229;52.354;20.886;2023-01-24T19:53:15;2.40;99.90
18207;DHT22;9229;52.354;20.886;2023-01-24T19:58:19;2.40;99.90
18207;DHT22;9229;52.354;20.886;2023-01-24T20:03:21;2.30;99.90
18207;DHT22;9229;52.354;20.886;2023-01-24T20:08:23;2.20;99.90
18207;DHT22;9229;52.354;20.886;2023-01-24T20:13:27;2.20;99.90
18207;DHT22;9229;52.354;20.886;2023-01-24T20:18:29;2.20;99.90
18207;DHT22;9229;52.354;20.886;2023-01-24T20:23:32;2.10;99.90
18207;DHT22;9229;52.354;20.886;2023-01-24T20:28:36;2.20;99.90
18207;DHT22;9229;52.354;20.886;2023-01-24T20:33:39;2.10;99.90
18207;DHT22;9229;52.354;20.886;2023-01-24T20:38:45;2.10;99.90
18207;DHT22;9229;52.354;20.886;2023-01-24T20:43:49;2.10;99.90
18207;DHT22;9229;52.354;20.886;2023-01-24T20:48:56;2.10;99.90
18207;DHT22;9229;52.354;20.886;2023-01-24T20:54:04;2.20;99.90
18207;DHT22;9229;52.354;20.886;2023-01-24T20:59:10;2.30;99.90
18207;DHT22;9229;52.354;20.886;2023-01-24T21:04:15;2.40;99.90
18207;DHT22;9229;52.354;20.886;2023-01-24T21:09:18;2.30;99.90
18207;DHT22;9229;52.354;20.886;2023-01-24T21:14:36;2.50;99.90
18207;DHT22;9229;52.354;20.886;2023-01-24T21:19:38;2.50;99.90
18207;DHT22;9229;52.354;20.886;2023-01-24T21:24:43;2.40;99.90
18207;DHT22;9229;52.354;20.886;2023-01-24T21:29:47;2.40;99.90
18207;DHT22;9229;52.354;20.886;2023-01-24T21:34:49;2.40;99.90
18207;DHT22;9229;52.354;20.886;2023-01-24T21:39:51;2.40;99.90
18207;DHT22;9229;52.354;20.886;2023-01-24T21:44:55;2.40;99.90
18207;DHT22;9229;52.354;20.886;2023-01-24T21:49:57;2.40;99.90
18207;DHT22;9229;52.354;20.886;2023-01-24T21:55:02;2.50;99.90
18207;DHT22;9229;52.354;20.886;2023-01-24T22:00:07;2.50;99.90
18207;DHT22;9229;52.354;20.886;2023-01-24T22:05:15;2.50;99.90
18207;DHT22;9229;52.354;20.886;2023-01-24T22:10:19;2.40;99.90
18207;DHT22;9229;52.354;20.886;2023-01-24T22:15:25;2.40;99.90
18207;DHT22;9229;52.354;20.886;2023-01-24T22:20:27;2.30;99.90
18207;DHT22;9229;52.354;20.886;2023-01-24T22:25:39;2.20;99.90
18207;DHT22;9229;52.354;20.886;2023-01-24T22:30:53;2.20;99.90
18207;DHT22;9229;52.354;20.886;2023-01-24T22:36:18;2.20;99.90
18207;DHT22;9229;52.354;20.886;2023-01-24T22:41:20;2.10;99.90
18207;DHT22;9229;52.354;20.886;2023-01-24T22:46:25;2.00;99.90
18207;DHT22;9229;52.354;20.886;2023-01-24T22:51:31;2.00;99.90
18207;DHT22;9229;52.354;20.886;2023-01-24T22:56:33;2.00;99.90
18207;DHT22;9229;52.354;20.886;2023-01-24T23:01:37;1.90;99.90
18207;DHT22;9229;52.354;20.886;2023-01-24T23:06:39;1.90;99.90
18207;DHT22;9229;52.354;20.886;2023-01-24T23:11:41;1.90;99.90
18207;DHT22;9229;52.354;20.886;2023-01-24T23:16:55;1.80;99.90
18207;DHT22;9229;52.354;20.886;2023-01-24T23:21:59;1.80;99.90
18207;DHT22;9229;52.354;20.886;2023-01-24T23:27:02;1.80;99.90
18207;DHT22;9229;52.354;20.886;2023-01-24T23:32:16;1.80;99.90
18207;DHT22;9229;52.354;20.886;2023-01-24T23:37:18;1.70;99.90
18207;DHT22;9229;52.354;20.886;2023-01-24T23:42:22;1.70;99.90
18207;DHT22;9229;52.354;20.886;2023-01-24T23:47:26;1.70;99.90
18207;DHT22;9229;52.354;20.886;2023-01-24T23:52:29;1.70;99.90
18207;DHT22;9229;52.354;20.886;2023-01-24T23:57:31;1.70;99.90
